Aérodrome :
LOGIN :

S'inscrire | Disclaimer

   EN    FR    IT 

 










Légende :    VFR   VFR Marginal   IFR   IFR Intensif   IFR Très Intensif
Visi : 
Plafond : 
>= 8 km
>= 3000ft
5 à 8 km
1000 à 3000 ft
1500m à 5 km
500 à 1000 ft
800 à 1500m
200 à 500 ft
< 800m
< 200 ft
Symboles :   Orages  Brouillard  Fortes neiges  Fortes précipitations  Vent > 20 kt
SIGMETs :   Divers  Orages  Givrage  Turbulence  Onde Orograph.  Cendres Volcan.







- Altitude de l'aérodrome : 74 ft
- Code IATA : NDZ


ETMN - Cuxhaven Nordholz Sea AB

DERNIER METAR :
  • 191328Z 32025G37KT 8000 SCT020CB 07/03 Q1008 RESHRA BLU+

METARs EXPIRÉS :
  • 191320Z 32022KT 3000 SHRA BKN020CB 07/04 Q1008 YLO
  • 191307Z 33015G26KT 5000 SHRA BKN020CB BKN050 08/05 Q1008 WHT
  • 191245Z 31023G38KT 4000 SHRA BKN018CB BKN050 08/04 Q1008 GRN
  • 191226Z 31021G36KT 8000 SHRA FEW012 SCT020CB BKN050 09/04 Q1008 BLU
  • 191120Z 33027KT 9999 -SHRA FEW019CB SCT060 06/04 Q1008 RESHRA BLU+
  • 191110Z 31029KT 4000 SHRAGS BKN019CB BKN050 08/05 Q1007 GRN

Prévision TAF périmée.
Pas de NOTAMs connus pour ce terrain.



MET'MAP, la Météo Aéronautique d'un coup d'oeil ! - Copyright ORBIFLY Décembre 2007 - Disclaimer

ORBIFLY MET'MAP TEAM :

Programmation & Développement : Alexandra Zaïnal
Conception & Développement : Baudouin d'Aumeries
Co-Programmation & Développement : Marc-Olivier Méhu
Soutien technique & logistique : Manuel Goepfert

Contact : metmap@orbifly.com




SOURCES & CREDITS :

   NOAA